Time;durP1;ratioP1;P1;durP2;ratioP2;P2;SDS_P1;SDS_P2;PMS_P1;PMS_P2;Temp;Humidity;BMP_temperature;BMP_pressure;BME280_temperature;BME280_humidity;BME280_pressure;Samples;Min_cycle;Max_cycle;Signal;HPM_P1;HPM_P2
2022/01/12 00:01:10;;;;;;;124.35;34.88;;;6.00;99.90;;;;;;5115044;27;20548;-79
2022/01/12 00:03:36;;;;;;;109.60;34.00;;;6.00;99.90;;;;;;5115896;27;20189;-78
2022/01/12 00:06:04;;;;;;;135.63;36.90;;;6.00;99.90;;;;;;5117495;27;20207;-81
2022/01/12 00:08:31;;;;;;;128.23;35.67;;;6.00;99.90;;;;;;5117822;27;20211;-80
2022/01/12 00:10:58;;;;;;;121.20;34.92;;;6.00;99.90;;;;;;5118162;27;20200;-80
2022/01/12 00:13:24;;;;;;;125.32;35.15;;;6.00;99.90;;;;;;5115171;27;20313;-80
2022/01/12 00:15:50;;;;;;;105.78;32.35;;;6.00;99.90;;;;;;5119784;27;20636;-79
2022/01/12 00:18:16;;;;;;;106.45;32.78;;;6.00;99.90;;;;;;5120738;27;20271;-78
2022/01/12 00:20:42;;;;;;;114.57;32.65;;;6.00;99.90;;;;;;5119553;27;20259;-80
2022/01/12 00:23:08;;;;;;;93.63;30.45;;;6.00;99.90;;;;;;5125084;27;20217;-80
2022/01/12 00:25:56;;;;;;;113.33;37.50;;;6.00;99.90;;;;;;5118989;27;20441;-79
2022/01/12 00:33:53;;;;;;;93.43;31.00;;;7.00;99.90;;;;;;5116692;27;20267;-79
2022/01/12 00:36:19;;;;;;;88.10;30.05;;;6.80;99.90;;;;;;5120090;27;20285;-78
2022/01/12 00:38:45;;;;;;;84.15;29.30;;;6.60;99.90;;;;;;5118234;27;20185;-80
2022/01/12 00:41:11;;;;;;;81.68;29.60;;;6.50;99.90;;;;;;5119656;27;20185;-78
2022/01/12 00:43:42;;;;;;;92.28;28.40;;;6.40;99.90;;;;;;5102107;27;20269;-78
2022/01/12 00:46:07;;;;;;;81.55;28.80;;;6.40;99.90;;;;;;5114608;27;20320;-80
2022/01/12 00:48:36;;;;;;;87.38;29.30;;;6.30;99.90;;;;;;5112462;27;20192;-78
2022/01/12 00:51:03;;;;;;;89.35;28.35;;;6.30;99.90;;;;;;5121534;27;20216;-79
2022/01/12 00:53:29;;;;;;;83.40;28.33;;;6.30;99.90;;;;;;5115225;27;20191;-79
2022/01/12 00:55:55;;;;;;;84.60;28.27;;;6.30;99.90;;;;;;5115554;27;20538;-78
2022/01/12 00:58:21;;;;;;;91.55;29.00;;;6.30;99.90;;;;;;5117233;27;20181;-78
2022/01/12 01:00:47;;;;;;;89.35;30.05;;;6.30;99.90;;;;;;5127616;27;20644;-78
2022/01/12 01:03:14;;;;;;;89.72;29.40;;;6.30;99.90;;;;;;5098130;27;20582;-78
2022/01/12 01:05:40;;;;;;;84.90;30.58;;;6.30;99.90;;;;;;5112310;27;20216;-79
2022/01/12 01:08:06;;;;;;;98.13;32.33;;;6.30;99.90;;;;;;5121396;27;20170;-78
2022/01/12 01:12:59;;;;;;;107.00;32.15;;;6.30;99.90;;;;;;5119881;27;20656;-79
2022/01/12 01:15:51;;;;;;;99.78;31.92;;;6.30;99.90;;;;;;5119813;27;20592;-78
2022/01/12 01:26:33;;;;;;;118.22;41.15;;;7.00;99.90;;;;;;5112838;27;20410;-76
2022/01/12 01:28:59;;;;;;;119.13;41.60;;;7.20;99.90;;;;;;5113814;27;20493;-77
2022/01/12 01:31:30;;;;;;;115.22;39.55;;;7.30;99.90;;;;;;5116139;28;20482;-76
2022/01/12 01:33:59;;;;;;;118.25;39.90;;;7.40;99.90;;;;;;5111307;27;20413;-77
2022/01/12 01:36:28;;;;;;;118.75;40.70;;;7.50;99.90;;;;;;5105525;27;20447;-77
2022/01/12 01:38:54;;;;;;;108.60;39.17;;;7.60;99.90;;;;;;5098793;28;21086;-77
2022/01/12 01:41:23;;;;;;;112.43;38.78;;;7.60;99.90;;;;;;5115845;27;20425;-75
2022/01/12 01:54:49;;;;;;;112.78;38.42;;;7.90;99.90;;;;;;5111728;28;20410;-77
2022/01/12 01:57:16;;;;;;;116.55;38.42;;;7.90;99.90;;;;;;5117606;28;20422;-77
2022/01/12 01:59:42;;;;;;;117.57;33.30;;;8.00;99.90;;;;;;5096783;28;20260;-77
2022/01/12 02:02:07;;;;;;;107.40;32.38;;;7.60;99.90;;;;;;5132113;27;20318;-77
2022/01/12 02:04:33;;;;;;;102.50;31.50;;;7.30;99.90;;;;;;5110008;28;20188;-77
2022/01/12 02:06:59;;;;;;;111.57;31.88;;;7.10;99.90;;;;;;5118808;28;20200;-76
2022/01/12 02:09:26;;;;;;;105.78;32.00;;;7.00;99.90;;;;;;5113330;28;20188;-77
2022/01/12 02:12:12;;;;;;;105.55;31.20;;;6.90;99.90;;;;;;5112048;28;20204;-77
2022/01/12 02:14:39;;;;;;;98.20;30.13;;;6.80;99.90;;;;;;5118642;28;20188;-78
2022/01/12 02:17:13;;;;;;;110.85;32.08;;;6.80;99.90;;;;;;5113927;28;20185;-77
2022/01/12 02:36:24;;;;;;;137.98;41.58;;;7.90;99.90;;;;;;5109600;28;20532;-77
2022/01/12 02:41:35;;;;;;;135.90;41.40;;;8.00;99.90;;;;;;5109032;27;20924;-78
2022/01/12 02:54:51;;;;;;;133.68;41.92;;;8.20;99.90;;;;;;5119463;27;20816;-77
2022/01/12 02:57:18;;;;;;;118.55;39.38;;;8.20;99.90;;;;;;5126959;27;20415;-77
2022/01/12 03:00:09;;;;;;;130.30;38.92;;;8.20;99.90;;;;;;5114779;27;20406;-77
2022/01/12 03:02:38;;;;;;;128.73;39.27;;;8.30;99.90;;;;;;5113671;27;20910;-77
2022/01/12 03:07:45;;;;;;;117.78;37.88;;;8.30;99.90;;;;;;5114550;27;20407;-77
2022/01/12 03:10:12;;;;;;;113.57;38.03;;;8.30;99.90;;;;;;5113174;27;20400;-76
2022/01/12 03:12:43;;;;;;;127.80;39.33;;;8.30;99.90;;;;;;5111510;27;20443;-77
2022/01/12 03:15:11;;;;;;;124.13;39.78;;;8.30;99.90;;;;;;5112165;27;20754;-77
2022/01/12 03:17:37;;;;;;;129.60;39.55;;;8.20;99.90;;;;;;5116754;27;20493;-77
2022/01/12 03:20:05;;;;;;;127.93;40.23;;;8.20;99.90;;;;;;5123642;27;20410;-79
2022/01/12 03:22:31;;;;;;;108.10;35.95;;;8.20;99.90;;;;;;5103662;27;20904;-78
2022/01/12 03:24:57;;;;;;;105.95;34.95;;;8.20;99.90;;;;;;5116537;27;20402;-78
2022/01/12 03:27:25;;;;;;;105.72;32.47;;;8.20;99.90;;;;;;5120567;27;20854;-79
2022/01/12 03:29:55;;;;;;;103.30;31.25;;;8.20;99.90;;;;;;5117333;27;20504;-78
2022/01/12 03:32:31;;;;;;;90.20;29.33;;;8.10;99.90;;;;;;5104029;27;20436;-78
2022/01/12 03:35:07;;;;;;;103.38;30.70;;;8.10;99.90;;;;;;5112536;27;20408;-76
2022/01/12 03:37:41;;;;;;;104.53;30.70;;;8.10;99.90;;;;;;5126512;27;20478;-79
2022/01/12 03:40:09;;;;;;;103.17;30.70;;;8.00;99.90;;;;;;5119706;27;20606;-80
2022/01/12 03:42:35;;;;;;;104.32;30.42;;;8.00;99.90;;;;;;5125877;27;20879;-78
2022/01/12 03:45:01;;;;;;;102.15;31.23;;;8.00;99.90;;;;;;5106881;27;20414;-78
2022/01/12 03:47:27;;;;;;;107.18;28.88;;;8.00;99.90;;;;;;5118803;27;20408;-78
2022/01/12 03:49:53;;;;;;;97.30;25.87;;;7.90;99.90;;;;;;5114919;27;20455;-79
2022/01/12 03:52:18;;;;;;;87.82;22.08;;;7.90;99.90;;;;;;5109728;27;20391;-79
2022/01/12 03:54:46;;;;;;;76.25;20.20;;;7.90;99.90;;;;;;5124983;27;20799;-78
2022/01/12 03:57:12;;;;;;;78.17;19.03;;;7.90;99.90;;;;;;5130452;27;20447;-78
2022/01/12 03:59:38;;;;;;;69.45;18.17;;;7.80;99.90;;;;;;5115226;27;20947;-77
2022/01/12 04:02:03;;;;;;;69.18;17.90;;;7.90;99.90;;;;;;5112103;27;20410;-77
2022/01/12 04:04:36;;;;;;;78.45;17.50;;;7.80;99.90;;;;;;5114398;27;20430;-78
2022/01/12 04:09:47;;;;;;;74.90;20.08;;;7.80;99.90;;;;;;5119094;27;20496;-77
2022/01/12 04:12:15;;;;;;;180.60;21.77;;;7.70;99.90;;;;;;5125527;27;20443;-77
2022/01/12 04:14:41;;;;;;;76.13;21.13;;;7.60;99.90;;;;;;5094958;28;20408;-77
2022/01/12 04:17:06;;;;;;;57.50;20.67;;;7.50;99.90;;;;;;5114471;27;20757;-77
2022/01/12 04:19:34;;;;;;;51.25;20.05;;;7.40;99.90;;;;;;5114860;27;20402;-78
2022/01/12 04:22:17;;;;;;;46.17;20.20;;;7.40;99.90;;;;;;5111321;27;20456;-77
2022/01/12 04:24:43;;;;;;;52.88;20.52;;;7.30;99.90;;;;;;5109007;27;20415;-77
2022/01/12 04:27:08;;;;;;;47.05;20.88;;;7.20;99.90;;;;;;5113737;27;20466;-78
2022/01/12 04:29:34;;;;;;;48.07;20.17;;;7.20;99.90;;;;;;5125242;27;20767;-77
2022/01/12 04:32:00;;;;;;;51.83;19.08;;;7.20;99.90;;;;;;5101693;28;20408;-77
2022/01/12 04:34:25;;;;;;;48.60;19.13;;;7.10;99.90;;;;;;5118172;27;20469;-79
2022/01/12 04:36:51;;;;;;;53.80;19.70;;;7.10;99.90;;;;;;5106053;27;20398;-78
2022/01/12 04:39:17;;;;;;;42.07;19.33;;;7.00;99.90;;;;;;5101235;27;20465;-78
2022/01/12 04:41:43;;;;;;;42.75;18.88;;;7.00;99.90;;;;;;5117294;27;20434;-78
2022/01/12 04:44:11;;;;;;;44.03;19.53;;;7.00;99.90;;;;;;5098792;27;20431;-79
2022/01/12 04:46:50;;;;;;;43.05;21.17;;;7.00;99.90;;;;;;5119558;27;20496;-80
2022/01/12 04:49:36;;;;;;;44.30;20.17;;;6.90;99.90;;;;;;5117626;27;20848;-80
2022/01/12 04:52:03;;;;;;;46.83;19.48;;;6.90;99.90;;;;;;5113471;27;20481;-78
2022/01/12 04:54:29;;;;;;;95.78;21.08;;;6.90;99.90;;;;;;5119691;27;20784;-80
2022/01/12 04:56:55;;;;;;;44.50;18.58;;;6.80;99.90;;;;;;5113232;27;20468;-79
2022/01/12 04:59:21;;;;;;;47.80;19.70;;;6.80;99.90;;;;;;5119110;27;20451;-77
2022/01/12 05:01:56;;;;;;;40.13;18.53;;;6.80;99.90;;;;;;5116036;27;20411;-76
2022/01/12 05:07:29;;;;;;;35.03;19.00;;;6.70;99.90;;;;;;5114677;27;20758;-77
2022/01/12 05:12:52;;;;;;;173.93;18.02;;;6.60;99.90;;;;;;5115689;27;20402;-79
2022/01/12 05:15:27;;;;;;;219.40;19.77;;;6.50;99.90;;;;;;5096134;28;21159;-77
2022/01/12 05:17:54;;;;;;;182.55;20.40;;;6.40;99.90;;;;;;5113632;27;20499;-76
2022/01/12 05:20:21;;;;;;;269.30;25.38;;;6.30;99.90;;;;;;5092333;27;20847;-75
2022/01/12 05:22:47;;;;;;;226.63;23.67;;;6.20;99.90;;;;;;5113607;27;20751;-76
2022/01/12 05:25:13;;;;;;;146.60;20.90;;;6.10;99.90;;;;;;5109505;27;20965;-77
2022/01/12 05:27:39;;;;;;;117.53;17.77;;;6.10;99.90;;;;;;5099980;27;20221;-74
2022/01/12 05:30:05;;;;;;;106.07;16.02;;;5.70;99.90;;;;;;5099070;27;20208;-75
2022/01/12 05:32:32;;;;;;;69.45;15.05;;;5.30;99.90;;;;;;5120617;27;20185;-77
2022/01/12 05:35:03;;;;;;;41.50;14.73;;;5.10;99.90;;;;;;5117286;27;20610;-78
2022/01/12 05:37:29;;;;;;;42.50;14.25;;;5.00;99.90;;;;;;5098795;28;20654;-77
2022/01/12 05:39:55;;;;;;;69.82;15.07;;;4.80;99.90;;;;;;5121183;27;20188;-76
2022/01/12 05:42:20;;;;;;;44.22;14.48;;;4.70;99.90;;;;;;5098029;27;20264;-77
2022/01/12 05:44:46;;;;;;;95.57;15.13;;;4.60;99.90;;;;;;5114406;27;20186;-76
2022/01/12 05:47:30;;;;;;;76.60;15.90;;;4.50;99.90;;;;;;5115987;28;20216;-78
2022/01/12 05:49:55;;;;;;;100.78;16.58;;;4.50;99.90;;;;;;5113652;28;20180;-78
2022/01/12 05:52:21;;;;;;;284.48;30.92;;;4.30;99.90;;;;;;5113674;28;20427;-77
2022/01/12 05:54:47;;;;;;;290.73;30.70;;;4.70;99.90;;;;;;5092209;28;20396;-77
2022/01/12 05:57:12;;;;;;;173.40;26.88;;;4.90;99.90;;;;;;5108902;28;20422;-77
2022/01/12 05:59:38;;;;;;;134.83;24.97;;;5.10;99.90;;;;;;5103727;27;20410;-78
2022/01/12 06:02:04;;;;;;;104.03;24.45;;;5.20;99.90;;;;;;5106738;28;20915;-78
2022/01/12 06:04:31;;;;;;;195.85;29.98;;;5.30;99.90;;;;;;5120615;27;20423;-78
2022/01/12 06:06:57;;;;;;;53.80;24.03;;;5.30;99.90;;;;;;5108356;28;20404;-77
2022/01/12 06:09:24;;;;;;;54.88;23.95;;;5.30;99.90;;;;;;5105694;28;20415;-76
2022/01/12 06:11:49;;;;;;;69.38;26.55;;;5.40;99.90;;;;;;5098162;28;20397;-77
2022/01/12 06:14:19;;;;;;;69.43;37.75;;;5.40;99.90;;;;;;5114535;28;20957;-78
2022/01/12 06:16:45;;;;;;;47.13;24.73;;;5.40;99.90;;;;;;5112621;27;20470;-76
2022/01/12 06:19:10;;;;;;;38.37;22.17;;;5.40;99.90;;;;;;5121348;27;20971;-77
2022/01/12 06:21:49;;;;;;;37.17;21.65;;;5.50;99.90;;;;;;5105398;27;20499;-76
2022/01/12 06:24:20;;;;;;;60.58;23.15;;;5.50;99.90;;;;;;5106847;27;20567;-77
2022/01/12 06:26:47;;;;;;;75.70;24.50;;;5.50;99.90;;;;;;5113595;27;20881;-77
2022/01/12 06:31:52;;;;;;;63.03;24.95;;;5.50;99.90;;;;;;5120679;27;20397;-76
2022/01/12 06:34:20;;;;;;;56.20;24.35;;;5.50;99.90;;;;;;5120863;27;20925;-78
2022/01/12 06:36:45;;;;;;;60.42;24.30;;;5.50;99.90;;;;;;5096969;28;20895;-76
2022/01/12 06:39:20;;;;;;;181.68;25.70;;;5.50;99.90;;;;;;5116208;27;20410;-74
2022/01/12 06:41:49;;;;;;;97.78;25.52;;;5.50;99.90;;;;;;5117242;27;20399;-76
2022/01/12 06:44:17;;;;;;;82.47;24.10;;;5.60;99.90;;;;;;5118748;27;20417;-79
2022/01/12 06:46:44;;;;;;;156.10;25.13;;;5.60;99.90;;;;;;5098125;27;20412;-78
2022/01/12 06:49:11;;;;;;;211.45;26.92;;;5.60;99.90;;;;;;5109847;27;20414;-78
2022/01/12 06:51:38;;;;;;;188.25;23.15;;;5.60;99.90;;;;;;5113885;27;20918;-77
2022/01/12 06:54:04;;;;;;;119.40;19.87;;;5.70;99.90;;;;;;5113234;27;20460;-77
2022/01/12 06:56:31;;;;;;;212.48;23.60;;;5.60;99.90;;;;;;5108539;27;20404;-78
2022/01/12 06:58:57;;;;;;;170.77;21.90;;;5.70;99.90;;;;;;5095975;27;20487;-77
2022/01/12 07:01:23;;;;;;;102.72;21.83;;;5.60;99.90;;;;;;5096464;28;20410;-78
2022/01/12 07:03:49;;;;;;;79.65;20.95;;;5.70;99.90;;;;;;5109015;27;20766;-78
2022/01/12 07:06:15;;;;;;;77.93;19.48;;;5.70;99.90;;;;;;5114913;27;20402;-78
2022/01/12 07:08:42;;;;;;;115.03;22.13;;;5.70;99.90;;;;;;5113306;27;20424;-76
2022/01/12 07:11:13;;;;;;;102.43;22.03;;;5.70;99.90;;;;;;5098947;27;20412;-77
2022/01/12 07:13:40;;;;;;;50.80;19.48;;;5.70;99.90;;;;;;5114437;27;20412;-77
2022/01/12 07:16:07;;;;;;;41.30;18.83;;;5.70;99.90;;;;;;5093429;28;20403;-76
2022/01/12 07:18:33;;;;;;;37.58;18.52;;;5.70;99.90;;;;;;5109426;27;20781;-77
2022/01/12 07:20:59;;;;;;;56.67;18.75;;;5.70;99.90;;;;;;5111505;27;20409;-77
2022/01/12 07:23:26;;;;;;;52.30;18.20;;;5.80;99.90;;;;;;5106813;28;20879;-74
2022/01/12 07:25:52;;;;;;;58.58;19.27;;;5.70;99.90;;;;;;5125034;27;20408;-76
2022/01/12 07:28:19;;;;;;;41.40;18.88;;;5.70;99.90;;;;;;5114112;27;20410;-76
2022/01/12 07:30:45;;;;;;;43.87;19.10;;;5.70;99.90;;;;;;5108332;28;20748;-75
2022/01/12 07:33:11;;;;;;;35.28;18.63;;;5.70;99.90;;;;;;5097037;27;20455;-75
2022/01/12 07:35:37;;;;;;;34.95;19.25;;;5.70;99.90;;;;;;5119644;27;20498;-79
2022/01/12 07:38:03;;;;;;;35.47;19.70;;;5.70;99.90;;;;;;5098729;28;21252;-74
2022/01/12 07:40:29;;;;;;;36.80;20.30;;;5.70;99.90;;;;;;5115714;27;20813;-75
2022/01/12 07:42:55;;;;;;;35.88;19.70;;;5.70;99.90;;;;;;5115005;27;20435;-75
2022/01/12 07:45:22;;;;;;;35.03;19.43;;;5.70;99.90;;;;;;5111579;27;20403;-74
2022/01/12 07:47:48;;;;;;;35.35;18.85;;;5.70;99.90;;;;;;5114466;27;20416;-74
2022/01/12 07:50:14;;;;;;;33.45;18.98;;;5.70;99.90;;;;;;5110591;27;20443;-74
2022/01/12 07:52:39;;;;;;;32.03;18.05;;;5.70;99.90;;;;;;5115387;27;20411;-75
2022/01/12 07:55:07;;;;;;;35.63;19.10;;;5.80;99.90;;;;;;5107412;27;20497;-74
2022/01/12 07:57:33;;;;;;;32.28;19.00;;;5.80;99.90;;;;;;5107441;27;20541;-73
2022/01/12 07:59:58;;;;;;;34.92;19.23;;;5.80;99.90;;;;;;5108494;28;20408;-74
2022/01/12 08:02:24;;;;;;;34.87;19.47;;;5.80;99.90;;;;;;5107716;27;20424;-74
2022/01/12 08:04:50;;;;;;;33.75;18.13;;;5.80;99.90;;;;;;5115053;27;20402;-75
2022/01/12 08:07:16;;;;;;;31.65;16.73;;;5.90;99.90;;;;;;5113467;27;20405;-73
2022/01/12 08:09:43;;;;;;;35.90;19.53;;;5.90;99.90;;;;;;5119609;27;20760;-74
2022/01/12 08:12:09;;;;;;;34.50;19.40;;;5.90;99.90;;;;;;5107879;28;20933;-75
2022/01/12 08:14:35;;;;;;;35.37;18.87;;;6.00;99.90;;;;;;5115996;27;20456;-76
2022/01/12 08:17:01;;;;;;;40.70;18.63;;;6.00;99.90;;;;;;5111255;27;20475;-76
2022/01/12 08:19:28;;;;;;;35.78;17.75;;;6.00;99.90;;;;;;5115431;27;20406;-75
2022/01/12 08:21:55;;;;;;;36.45;19.10;;;6.10;99.90;;;;;;5115260;27;20884;-74
2022/01/12 08:24:21;;;;;;;33.25;19.13;;;6.10;99.90;;;;;;5116664;27;20818;-73
2022/01/12 08:26:47;;;;;;;35.55;18.52;;;6.10;99.90;;;;;;5115963;27;20957;-76
2022/01/12 08:29:15;;;;;;;43.03;19.00;;;6.20;99.90;;;;;;5111042;27;20514;-75
2022/01/12 08:31:42;;;;;;;39.30;17.67;;;6.20;99.90;;;;;;5118619;27;20391;-73
2022/01/12 08:34:10;;;;;;;43.38;18.83;;;6.20;99.90;;;;;;5117203;27;20404;-71
2022/01/12 08:36:37;;;;;;;39.47;17.10;;;6.20;99.90;;;;;;5116461;27;20396;-74
2022/01/12 08:39:07;;;;;;;33.75;17.58;;;6.30;99.90;;;;;;5107644;28;20412;-76
2022/01/12 08:41:32;;;;;;;34.42;17.23;;;6.30;99.90;;;;;;5121113;27;20389;-75
2022/01/12 08:43:58;;;;;;;34.80;17.00;;;6.30;99.90;;;;;;5110671;27;21095;-74
2022/01/12 08:46:24;;;;;;;31.52;16.35;;;6.40;99.90;;;;;;5118084;27;20410;-76
2022/01/12 08:48:49;;;;;;;29.53;16.60;;;6.40;99.90;;;;;;5119223;27;20406;-75
2022/01/12 08:51:15;;;;;;;29.75;17.20;;;6.40;99.90;;;;;;5110275;27;20403;-74
2022/01/12 08:53:41;;;;;;;31.00;16.53;;;6.50;99.90;;;;;;5120955;27;20457;-74
2022/01/12 08:56:07;;;;;;;30.80;17.40;;;6.60;99.90;;;;;;5109524;27;20404;-76
2022/01/12 08:58:33;;;;;;;30.40;16.60;;;6.70;99.90;;;;;;5093033;28;20661;-75
2022/01/12 09:01:03;;;;;;;31.52;16.45;;;6.70;99.90;;;;;;5109388;27;20407;-76
2022/01/12 09:03:30;;;;;;;30.77;15.90;;;6.70;99.90;;;;;;5118033;27;20490;-75
2022/01/12 09:05:56;;;;;;;29.17;16.75;;;6.80;99.90;;;;;;5117266;27;20897;-74
2022/01/12 09:08:22;;;;;;;33.50;16.02;;;6.80;99.90;;;;;;5113121;27;20407;-78
2022/01/12 09:10:48;;;;;;;33.35;15.65;;;6.80;99.90;;;;;;5125376;27;20782;-73
2022/01/12 09:13:13;;;;;;;28.87;15.53;;;6.90;99.90;;;;;;5123171;27;20402;-75
2022/01/12 09:15:39;;;;;;;29.65;15.95;;;7.00;99.90;;;;;;5112532;27;20391;-76
2022/01/12 09:18:05;;;;;;;29.48;15.38;;;7.10;99.90;;;;;;5120934;27;20438;-75
2022/01/12 09:20:31;;;;;;;30.00;14.40;;;7.30;99.90;;;;;;5116270;27;20429;-75
2022/01/12 09:22:56;;;;;;;;;;;7.90;99.90;;;;;;5116859;27;20024;-75
2022/01/12 09:25:22;;;;;;;22.80;11.45;;;8.10;99.90;;;;;;5115242;27;20405;-75
2022/01/12 09:27:47;;;;;;;15.23;9.47;;;9.20;99.90;;;;;;5120802;27;20732;-77
2022/01/12 09:30:15;;;;;;;16.73;8.40;;;10.50;99.90;;;;;;5119749;27;20478;-76
2022/01/12 09:32:40;;;;;;;10.70;7.20;;;11.60;99.90;;;;;;5120158;27;20400;-77
2022/01/12 09:35:07;;;;;;;13.35;7.00;;;12.60;99.10;;;;;;5116914;27;20753;-76
2022/01/12 09:37:33;;;;;;;12.10;6.43;;;13.60;96.70;;;;;;5116840;27;20504;-76
2022/01/12 09:39:59;;;;;;;14.30;6.87;;;14.50;93.70;;;;;;5104673;28;20808;-75
2022/01/12 09:42:24;;;;;;;12.83;6.77;;;15.30;91.10;;;;;;5109372;28;20417;-75
2022/01/12 09:44:50;;;;;;;11.80;7.15;;;15.90;87.20;;;;;;5111491;27;20450;-76
2022/01/12 09:47:16;;;;;;;11.05;7.10;;;16.50;83.80;;;;;;5113749;27;20419;-77
2022/01/12 09:49:43;;;;;;;10.32;6.90;;;16.90;79.70;;;;;;5113513;28;20890;-77
2022/01/12 09:52:09;;;;;;;11.57;7.03;;;17.20;76.20;;;;;;5118383;27;20487;-76
2022/01/12 09:54:36;;;;;;;14.55;7.50;;;17.50;73.50;;;;;;5114030;27;20486;-75
2022/01/12 09:57:03;;;;;;;10.02;6.90;;;17.60;71.50;;;;;;5115272;27;20489;-76
2022/01/12 09:59:28;;;;;;;12.30;7.00;;;17.70;70.10;;;;;;5122182;27;20396;-75
2022/01/12 10:01:55;;;;;;;11.07;7.03;;;17.90;68.60;;;;;;5105318;27;20406;-76
2022/01/12 10:04:24;;;;;;;12.70;7.50;;;18.10;66.70;;;;;;5122486;27;20410;-76
2022/01/12 10:06:53;;;;;;;13.50;7.80;;;18.20;65.60;;;;;;5119693;27;20400;-75
2022/01/12 10:09:25;;;;;;;16.08;8.52;;;18.20;65.30;;;;;;5108318;27;20420;-77
2022/01/12 10:11:56;;;;;;;13.95;8.40;;;18.30;64.70;;;;;;5123344;27;20411;-78
2022/01/12 10:14:25;;;;;;;13.68;8.73;;;18.60;63.10;;;;;;5125131;27;20405;-76
2022/01/12 10:16:56;;;;;;;14.53;9.23;;;18.80;61.90;;;;;;5124059;27;20755;-77
2022/01/12 10:19:26;;;;;;;13.93;9.40;;;18.80;60.80;;;;;;5119187;27;20400;-73
2022/01/12 10:21:52;;;;;;;15.77;9.93;;;18.70;60.00;;;;;;5121137;27;20507;-76
2022/01/12 10:24:19;;;;;;;18.00;10.88;;;18.20;61.20;;;;;;5118758;27;20494;-76
2022/01/12 10:26:46;;;;;;;19.73;10.70;;;17.40;63.50;;;;;;5117679;27;20415;-76
2022/01/12 10:29:24;;;;;;;20.02;11.10;;;16.50;67.20;;;;;;5119238;27;20400;-75
2022/01/12 10:31:53;;;;;;;23.40;13.05;;;15.60;70.60;;;;;;5115254;27;20406;-77
2022/01/12 10:34:25;;;;;;;22.67;12.33;;;14.70;74.90;;;;;;5116624;27;20400;-76
2022/01/12 10:36:53;;;;;;;21.05;12.00;;;14.00;79.20;;;;;;5125916;27;20393;-75
2022/01/12 10:39:21;;;;;;;23.55;12.00;;;13.30;83.40;;;;;;5119237;27;20409;-76
2022/01/12 10:42:06;;;;;;;22.45;12.70;;;12.90;86.10;;;;;;5131246;27;20448;-76
2022/01/12 10:44:34;;;;;;;23.40;11.98;;;12.50;89.50;;;;;;5125162;27;20805;-77
2022/01/12 10:47:17;;;;;;;22.77;12.23;;;12.20;91.00;;;;;;5123301;27;20407;-79
2022/01/12 10:49:55;;;;;;;22.15;12.18;;;12.00;91.60;;;;;;5127192;27;20403;-75
2022/01/12 10:52:26;;;;;;;21.20;12.40;;;11.70;92.70;;;;;;5122074;27;20438;-75
2022/01/12 10:54:56;;;;;;;23.83;12.90;;;11.50;93.20;;;;;;5121740;27;20443;-76
2022/01/12 10:57:31;;;;;;;23.92;12.93;;;11.30;93.80;;;;;;5125026;27;20759;-74
2022/01/12 11:00:10;;;;;;;30.63;14.23;;;11.20;94.50;;;;;;5098426;28;20758;-76
2022/01/12 11:02:38;;;;;;;26.80;13.23;;;11.00;95.40;;;;;;5116184;27;20802;-77
2022/01/12 11:05:07;;;;;;;33.72;13.50;;;11.00;96.10;;;;;;5119544;27;21133;-75
2022/01/12 11:07:33;;;;;;;26.67;13.00;;;11.10;96.10;;;;;;5126215;27;21151;-74
2022/01/12 11:10:00;;;;;;;54.97;15.18;;;11.10;95.90;;;;;;5117188;27;20459;-76
2022/01/12 11:12:27;;;;;;;36.50;12.87;;;11.10;95.90;;;;;;5105241;27;20492;-75
2022/01/12 11:14:53;;;;;;;47.53;12.75;;;11.20;96.40;;;;;;5119470;27;20410;-77
2022/01/12 11:17:20;;;;;;;53.15;12.32;;;11.30;96.20;;;;;;5146624;27;20439;-77
2022/01/12 11:20:01;;;;;;;131.90;11.70;;;11.40;96.30;;;;;;5117316;27;21009;-76
2022/01/12 11:22:55;;;;;;;124.82;10.70;;;11.40;95.60;;;;;;5115435;27;20783;-78
2022/01/12 11:25:25;;;;;;;76.68;11.35;;;11.40;95.50;;;;;;5115151;27;20414;-75
2022/01/12 11:28:15;;;;;;;81.55;11.10;;;11.30;96.10;;;;;;5123358;27;20469;-77
2022/01/12 11:31:02;;;;;;;83.35;10.98;;;11.40;95.90;;;;;;5113954;27;21783;-77
2022/01/12 11:33:31;;;;;;;84.57;11.05;;;11.50;95.80;;;;;;5113687;27;20491;-78
2022/01/12 11:36:10;;;;;;;89.63;10.43;;;11.60;95.80;;;;;;5125850;27;20431;-76
2022/01/12 11:38:36;;;;;;;105.68;10.77;;;11.60;95.80;;;;;;5113926;27;20930;-77
2022/01/12 11:41:38;;;;;;;123.27;11.03;;;11.70;96.40;;;;;;5120146;27;20410;-76
2022/01/12 11:44:09;;;;;;;106.85;11.60;;;11.70;95.40;;;;;;5032332;28;20425;-78
2022/01/12 11:46:43;;;;;;;165.82;12.40;;;11.60;96.20;;;;;;5105582;27;20410;-76
2022/01/12 11:49:08;;;;;;;80.63;12.52;;;11.60;95.80;;;;;;5112656;27;20416;-80
2022/01/12 11:51:37;;;;;;;155.48;13.60;;;11.50;96.30;;;;;;5124429;27;20421;-75
2022/01/12 11:54:14;;;;;;;239.97;13.87;;;11.40;96.60;;;;;;5100870;27;20410;-77
2022/01/12 11:56:57;;;;;;;84.70;12.93;;;11.30;96.70;;;;;;5112391;27;20408;-73
2022/01/12 11:59:26;;;;;;;289.08;14.55;;;11.20;97.40;;;;;;5114735;27;20439;-78
2022/01/12 12:02:09;;;;;;;149.85;13.90;;;11.10;97.40;;;;;;5115277;27;20421;-78
2022/01/12 12:04:35;;;;;;;288.10;14.98;;;11.00;98.00;;;;;;5114157;27;20415;-77
2022/01/12 12:07:04;;;;;;;225.32;15.07;;;10.90;98.00;;;;;;5122688;27;20892;-74
2022/01/12 12:09:52;;;;;;;124.43;14.43;;;10.80;98.30;;;;;;5118128;27;20413;-74
2022/01/12 12:12:21;;;;;;;173.57;14.23;;;10.60;98.80;;;;;;5126395;27;20477;-72
2022/01/12 12:14:55;;;;;;;58.85;14.70;;;10.60;99.40;;;;;;5113470;27;20784;-79
2022/01/12 12:17:23;;;;;;;234.15;14.60;;;10.50;99.80;;;;;;5114056;27;20896;-78
2022/01/12 12:19:50;;;;;;;238.25;14.65;;;10.60;99.90;;;;;;5115175;27;20907;-76
2022/01/12 12:22:22;;;;;;;149.35;14.57;;;10.50;99.80;;;;;;5115701;27;20454;-76
2022/01/12 12:25:13;;;;;;;228.05;15.20;;;10.50;99.90;;;;;;5110638;27;20889;-76
2022/01/12 12:27:42;;;;;;;185.68;14.88;;;10.50;99.90;;;;;;5117501;27;20445;-75
2022/01/12 12:30:20;;;;;;;219.77;14.50;;;10.40;99.90;;;;;;5114564;27;20930;-76
2022/01/12 12:32:57;;;;;;;155.93;14.52;;;10.30;99.90;;;;;;5112678;27;20432;-80
2022/01/12 12:35:27;;;;;;;125.35;13.85;;;10.20;99.90;;;;;;5113730;27;20434;-79
2022/01/12 12:37:58;;;;;;;118.23;14.50;;;10.30;99.90;;;;;;5116249;27;20408;-77
2022/01/12 12:40:25;;;;;;;137.82;14.02;;;10.30;99.90;;;;;;5115418;27;20420;-81
2022/01/12 12:43:06;;;;;;;187.73;14.30;;;10.30;99.90;;;;;;5109604;28;20420;-77
2022/01/12 12:45:46;;;;;;;153.93;13.83;;;10.20;99.90;;;;;;5108370;27;20477;-76
2022/01/12 12:48:17;;;;;;;246.60;15.00;;;10.20;99.90;;;;;;5122320;27;20900;-78
2022/01/12 12:50:44;;;;;;;190.57;15.43;;;10.10;99.90;;;;;;5116455;27;20432;-75
2022/01/12 12:53:10;;;;;;;153.70;14.18;;;10.10;99.90;;;;;;5109683;28;20373;-75
2022/01/12 12:55:41;;;;;;;117.65;15.00;;;10.10;99.90;;;;;;5113929;27;20418;-74
2022/01/12 12:58:07;;;;;;;113.47;14.80;;;10.20;99.90;;;;;;5120050;27;20404;-75
2022/01/12 13:00:35;;;;;;;74.00;15.30;;;10.20;99.90;;;;;;5110917;27;20960;-76
2022/01/12 13:03:02;;;;;;;77.22;15.43;;;10.20;99.90;;;;;;5110621;27;20402;-77
2022/01/12 13:05:30;;;;;;;52.75;14.60;;;10.20;99.90;;;;;;5113526;27;20407;-77
2022/01/12 13:07:57;;;;;;;106.18;15.23;;;10.20;99.90;;;;;;5116102;27;20411;-78
2022/01/12 13:10:26;;;;;;;138.77;15.85;;;10.10;99.90;;;;;;5116203;27;20797;-75
2022/01/12 13:12:55;;;;;;;117.97;15.55;;;10.10;99.90;;;;;;5120468;27;20400;-77
2022/01/12 13:15:26;;;;;;;164.13;16.17;;;10.10;99.90;;;;;;5113403;27;20404;-74
2022/01/12 13:18:20;;;;;;;146.93;16.33;;;10.10;99.90;;;;;;5119026;27;20402;-79
2022/01/12 13:21:07;;;;;;;148.45;15.57;;;10.00;99.90;;;;;;5109756;27;20407;-74
2022/01/12 13:23:56;;;;;;;50.00;14.05;;;10.00;99.90;;;;;;5114793;27;20306;-74
2022/01/12 13:26:31;;;;;;;211.73;14.23;;;9.50;99.90;;;;;;5117504;27;20204;-75
2022/01/12 13:28:58;;;;;;;99.60;16.25;;;9.20;99.90;;;;;;5111091;27;20423;-75
2022/01/12 13:31:24;;;;;;;200.90;16.23;;;9.40;99.90;;;;;;5125011;27;20403;-73
2022/01/12 13:33:56;;;;;;;119.90;15.18;;;9.70;99.90;;;;;;5122052;27;20385;-76
2022/01/12 13:36:27;;;;;;;109.95;15.88;;;9.70;99.90;;;;;;5107711;28;20749;-75
2022/01/12 13:39:09;;;;;;;104.20;15.93;;;9.80;99.90;;;;;;5114144;27;20415;-74
2022/01/12 13:41:37;;;;;;;86.35;15.88;;;9.80;99.90;;;;;;5108925;28;20408;-76
2022/01/12 13:44:06;;;;;;;112.20;15.70;;;9.80;99.90;;;;;;5092204;27;20449;-76
2022/01/12 13:46:37;;;;;;;144.55;15.85;;;9.80;99.90;;;;;;5111756;28;20427;-74
2022/01/12 13:51:37;;;;;;;86.18;16.73;;;9.80;99.90;;;;;;5114184;28;20879;-77
2022/01/12 13:54:08;;;;;;;120.15;15.27;;;9.80;99.90;;;;;;5111101;28;20429;-75